sensor_id;sensor_type;location;lat;lon;timestamp;pressure;altitude;pressure_sealevel;temperature;humidity
20156;BME280;10238;49.556;10.956;2023-02-19T00:01:07;98662.56;;;9.10;100.00
20156;BME280;10238;49.556;10.956;2023-02-19T00:03:58;98668.84;;;9.09;100.00
20156;BME280;10238;49.556;10.956;2023-02-19T00:06:48;98665.50;;;9.07;100.00
20156;BME280;10238;49.556;10.956;2023-02-19T00:09:35;98672.59;;;9.07;100.00
20156;BME280;10238;49.556;10.956;2023-02-19T00:12:23;98685.03;;;9.06;100.00
20156;BME280;10238;49.556;10.956;2023-02-19T00:15:10;98673.72;;;9.04;100.00
20156;BME280;10238;49.556;10.956;2023-02-19T00:17:58;98673.88;;;9.03;100.00
20156;BME280;10238;49.556;10.956;2023-02-19T00:20:45;98671.22;;;9.03;100.00
20156;BME280;10238;49.556;10.956;2023-02-19T00:23:34;98663.41;;;9.01;100.00
20156;BME280;10238;49.556;10.956;2023-02-19T00:26:22;98662.72;;;8.99;100.00
20156;BME280;10238;49.556;10.956;2023-02-19T00:29:14;98674.28;;;8.98;100.00
20156;BME280;10238;49.556;10.956;2023-02-19T00:32:02;98672.59;;;8.97;100.00
20156;BME280;10238;49.556;10.956;2023-02-19T00:34:49;98650.69;;;8.95;100.00
20156;BME280;10238;49.556;10.956;2023-02-19T00:37:37;98657.81;;;8.95;100.00
20156;BME280;10238;49.556;10.956;2023-02-19T00:40:26;98650.94;;;8.92;100.00
20156;BME280;10238;49.556;10.956;2023-02-19T00:43:14;98648.16;;;8.94;100.00
20156;BME280;10238;49.556;10.956;2023-02-19T00:46:01;98650.28;;;8.90;100.00
20156;BME280;10238;49.556;10.956;2023-02-19T00:48:49;98646.91;;;8.88;100.00
20156;BME280;10238;49.556;10.956;2023-02-19T00:51:38;98643.53;;;8.86;100.00
20156;BME280;10238;49.556;10.956;2023-02-19T00:54:26;98629.88;;;8.81;100.00
20156;BME280;10238;49.556;10.956;2023-02-19T00:57:15;98636.03;;;8.82;100.00
20156;BME280;10238;49.556;10.956;2023-02-19T01:00:04;98623.06;;;8.78;100.00
20156;BME280;10238;49.556;10.956;2023-02-19T01:02:52;98622.34;;;8.76;100.00
20156;BME280;10238;49.556;10.956;2023-02-19T01:05:40;98626.09;;;8.74;100.00
20156;BME280;10238;49.556;10.956;2023-02-19T01:08:31;98636.84;;;8.72;100.00
20156;BME280;10238;49.556;10.956;2023-02-19T01:11:19;98633.47;;;8.70;100.00
20156;BME280;10238;49.556;10.956;2023-02-19T01:14:08;98634.59;;;8.68;100.00
20156;BME280;10238;49.556;10.956;2023-02-19T01:16:56;98631.94;;;8.68;100.00
20156;BME280;10238;49.556;10.956;2023-02-19T01:19:43;98631.25;;;8.66;100.00
20156;BME280;10238;49.556;10.956;2023-02-19T01:22:31;98626.06;;;8.64;100.00
20156;BME280;10238;49.556;10.956;2023-02-19T01:25:19;98629.97;;;8.60;100.00
20156;BME280;10238;49.556;10.956;2023-02-19T01:28:07;98623.81;;;8.60;100.00
20156;BME280;10238;49.556;10.956;2023-02-19T01:31:00;98604.16;;;8.53;100.00
20156;BME280;10238;49.556;10.956;2023-02-19T01:33:53;98593.56;;;8.53;100.00
20156;BME280;10238;49.556;10.956;2023-02-19T01:36:41;98610.44;;;8.52;100.00
20156;BME280;10238;49.556;10.956;2023-02-19T01:39:28;98605.28;;;8.50;100.00
20156;BME280;10238;49.556;10.956;2023-02-19T01:42:16;98579.72;;;8.49;100.00
20156;BME280;10238;49.556;10.956;2023-02-19T01:45:25;98593.97;;;8.48;100.00
20156;BME280;10238;49.556;10.956;2023-02-19T01:48:19;98577.25;;;8.48;100.00
20156;BME280;10238;49.556;10.956;2023-02-19T01:51:12;98577.38;;;8.46;100.00
20156;BME280;10238;49.556;10.956;2023-02-19T01:54:04;98590.75;;;8.45;100.00
20156;BME280;10238;49.556;10.956;2023-02-19T01:56:54;98578.75;;;8.41;100.00
20156;BME280;10238;49.556;10.956;2023-02-19T01:59:44;98569.00;;;8.41;100.00
20156;BME280;10238;49.556;10.956;2023-02-19T02:02:33;98570.66;;;8.42;100.00
20156;BME280;10238;49.556;10.956;2023-02-19T02:05:37;98577.22;;;8.38;100.00
20156;BME280;10238;49.556;10.956;2023-02-19T02:08:30;98593.09;;;8.38;100.00
20156;BME280;10238;49.556;10.956;2023-02-19T02:11:39;98587.09;;;8.36;100.00
20156;BME280;10238;49.556;10.956;2023-02-19T02:14:33;98585.28;;;8.37;100.00
20156;BME280;10238;49.556;10.956;2023-02-19T02:17:27;98572.31;;;8.34;100.00
20156;BME280;10238;49.556;10.956;2023-02-19T02:20:34;98566.03;;;8.35;100.00
20156;BME280;10238;49.556;10.956;2023-02-19T02:23:39;98561.72;;;8.34;100.00
20156;BME280;10238;49.556;10.956;2023-02-19T02:26:55;98566.19;;;8.33;100.00
20156;BME280;10238;49.556;10.956;2023-02-19T02:30:40;98553.06;;;8.32;100.00
20156;BME280;10238;49.556;10.956;2023-02-19T02:33:36;98550.72;;;8.29;100.00
20156;BME280;10238;49.556;10.956;2023-02-19T02:36:30;98556.97;;;8.28;100.00
20156;BME280;10238;49.556;10.956;2023-02-19T02:39:22;98548.22;;;8.27;100.00
20156;BME280;10238;49.556;10.956;2023-02-19T02:42:11;98553.63;;;8.26;100.00
20156;BME280;10238;49.556;10.956;2023-02-19T02:45:29;98537.75;;;8.26;100.00
20156;BME280;10238;49.556;10.956;2023-02-19T02:48:36;98530.63;;;8.26;100.00
20156;BME280;10238;49.556;10.956;2023-02-19T02:51:30;98545.69;;;8.26;100.00
20156;BME280;10238;49.556;10.956;2023-02-19T02:54:25;98539.69;;;8.24;100.00
20156;BME280;10238;49.556;10.956;2023-02-19T02:57:32;98532.44;;;8.26;100.00
20156;BME280;10238;49.556;10.956;2023-02-19T03:00:21;98535.09;;;8.26;100.00
20156;BME280;10238;49.556;10.956;2023-02-19T03:03:12;98535.09;;;8.26;100.00
20156;BME280;10238;49.556;10.956;2023-02-19T03:06:05;98525.19;;;8.28;100.00
20156;BME280;10238;49.556;10.956;2023-02-19T03:09:01;98525.47;;;8.25;100.00
20156;BME280;10238;49.556;10.956;2023-02-19T03:11:54;98520.16;;;8.25;100.00
20156;BME280;10238;49.556;10.956;2023-02-19T03:15:08;98520.16;;;8.25;100.00
20156;BME280;10238;49.556;10.956;2023-02-19T03:18:18;98523.66;;;8.25;100.00
20156;BME280;10238;49.556;10.956;2023-02-19T03:21:28;98514.88;;;8.25;100.00
20156;BME280;10238;49.556;10.956;2023-02-19T03:24:17;98521.84;;;8.26;100.00
20156;BME280;10238;49.556;10.956;2023-02-19T03:27:20;98518.22;;;8.27;100.00
20156;BME280;10238;49.556;10.956;2023-02-19T03:30:17;98510.56;;;8.24;100.00
20156;BME280;10238;49.556;10.956;2023-02-19T03:33:10;98518.50;;;8.24;100.00
20156;BME280;10238;49.556;10.956;2023-02-19T03:36:05;98518.50;;;8.24;100.00
20156;BME280;10238;49.556;10.956;2023-02-19T03:39:00;98514.06;;;8.24;100.00
20156;BME280;10238;49.556;10.956;2023-02-19T03:41:59;98504.28;;;8.25;100.00
20156;BME280;10238;49.556;10.956;2023-02-19T03:45:09;98497.31;;;8.24;100.00
20156;BME280;10238;49.556;10.956;2023-02-19T03:48:18;98503.47;;;8.24;100.00
20156;BME280;10238;49.556;10.956;2023-02-19T03:51:26;98516.84;;;8.23;100.00
20156;BME280;10238;49.556;10.956;2023-02-19T03:54:23;98490.34;;;8.23;100.00
20156;BME280;10238;49.556;10.956;2023-02-19T03:57:21;98507.91;;;8.24;100.00
20156;BME280;10238;49.556;10.956;2023-02-19T04:00:14;98506.25;;;8.23;100.00
20156;BME280;10238;49.556;10.956;2023-02-19T04:03:15;98500.94;;;8.23;100.00
20156;BME280;10238;49.556;10.956;2023-02-19T04:06:13;98501.06;;;8.21;100.00
20156;BME280;10238;49.556;10.956;2023-02-19T04:09:08;98512.59;;;8.20;100.00
20156;BME280;10238;49.556;10.956;2023-02-19T04:11:58;98502.97;;;8.19;100.00
20156;BME280;10238;49.556;10.956;2023-02-19T04:14:52;98517.06;;;8.20;100.00
20156;BME280;10238;49.556;10.956;2023-02-19T04:17:52;98520.53;;;8.20;100.00
20156;BME280;10238;49.556;10.956;2023-02-19T04:20:44;98515.97;;;8.22;100.00
20156;BME280;10238;49.556;10.956;2023-02-19T04:23:38;98513.44;;;8.21;100.00
20156;BME280;10238;49.556;10.956;2023-02-19T04:26:27;98504.66;;;8.20;100.00
20156;BME280;10238;49.556;10.956;2023-02-19T04:29:15;98501.19;;;8.20;100.00
20156;BME280;10238;49.556;10.956;2023-02-19T04:32:03;98505.50;;;8.21;100.00
20156;BME280;10238;49.556;10.956;2023-02-19T04:34:51;98497.31;;;8.24;100.00
20156;BME280;10238;49.556;10.956;2023-02-19T04:37:40;98512.22;;;8.25;100.00
20156;BME280;10238;49.556;10.956;2023-02-19T04:40:30;98501.75;;;8.23;100.00
20156;BME280;10238;49.556;10.956;2023-02-19T04:43:17;98511.53;;;8.23;100.00
20156;BME280;10238;49.556;10.956;2023-02-19T04:46:05;98516.84;;;8.23;100.00
20156;BME280;10238;49.556;10.956;2023-02-19T04:48:53;98513.19;;;8.24;100.00
20156;BME280;10238;49.556;10.956;2023-02-19T04:51:42;98522.13;;;8.23;100.00
20156;BME280;10238;49.556;10.956;2023-02-19T04:54:29;98528.38;;;8.22;100.00
20156;BME280;10238;49.556;10.956;2023-02-19T04:57:18;98525.47;;;8.25;100.00
20156;BME280;10238;49.556;10.956;2023-02-19T05:00:08;98520.16;;;8.25;100.00
20156;BME280;10238;49.556;10.956;2023-02-19T05:02:56;98519.22;;;8.26;100.00
20156;BME280;10238;49.556;10.956;2023-02-19T05:05:43;98513.19;;;8.24;100.00
20156;BME280;10238;49.556;10.956;2023-02-19T05:08:31;98514.47;;;8.29;100.00
20156;BME280;10238;49.556;10.956;2023-02-19T05:11:19;98505.97;;;8.26;100.00
20156;BME280;10238;49.556;10.956;2023-02-19T05:14:10;98507.78;;;8.25;100.00
20156;BME280;10238;49.556;10.956;2023-02-19T05:16:58;98509.28;;;8.28;100.00
20156;BME280;10238;49.556;10.956;2023-02-19T05:19:46;98512.94;;;8.27;100.00
20156;BME280;10238;49.556;10.956;2023-02-19T05:22:33;98523.66;;;8.25;100.00
20156;BME280;10238;49.556;10.956;2023-02-19T05:25:21;98512.78;;;8.28;100.00
20156;BME280;10238;49.556;10.956;2023-02-19T05:28:10;98500.69;;;8.26;100.00
20156;BME280;10238;49.556;10.956;2023-02-19T05:31:07;98504.28;;;8.25;100.00
20156;BME280;10238;49.556;10.956;2023-02-19T05:33:56;98507.91;;;8.24;100.00
20156;BME280;10238;49.556;10.956;2023-02-19T05:36:43;98497.31;;;8.24;100.00
20156;BME280;10238;49.556;10.956;2023-02-19T05:39:31;98508.75;;;8.24;100.00
20156;BME280;10238;49.556;10.956;2023-02-19T05:42:18;98517.66;;;8.23;100.00
20156;BME280;10238;49.556;10.956;2023-02-19T05:45:07;98525.47;;;8.25;100.00
20156;BME280;10238;49.556;10.956;2023-02-19T05:47:56;98525.59;;;8.23;100.00
20156;BME280;10238;49.556;10.956;2023-02-19T05:50:44;98518.50;;;8.24;100.00
20156;BME280;10238;49.556;10.956;2023-02-19T05:53:32;98527.28;;;8.24;100.00
20156;BME280;10238;49.556;10.956;2023-02-19T05:56:29;98532.44;;;8.26;100.00
20156;BME280;10238;49.556;10.956;2023-02-19T05:59:24;98529.09;;;8.24;100.00
20156;BME280;10238;49.556;10.956;2023-02-19T06:02:12;98528.69;;;8.28;100.00
20156;BME280;10238;49.556;10.956;2023-02-19T06:05:01;98531.59;;;8.25;100.00
20156;BME280;10238;49.556;10.956;2023-02-19T06:07:49;98532.44;;;8.26;100.00
20156;BME280;10238;49.556;10.956;2023-02-19T06:10:37;98543.03;;;8.26;100.00
20156;BME280;10238;49.556;10.956;2023-02-19T06:13:26;98536.50;;;8.30;100.00
20156;BME280;10238;49.556;10.956;2023-02-19T06:16:13;98547.22;;;8.28;100.00
20156;BME280;10238;49.556;10.956;2023-02-19T06:19:03;98554.59;;;8.25;100.00
20156;BME280;10238;49.556;10.956;2023-02-19T06:21:52;98561.59;;;8.26;100.00
20156;BME280;10238;49.556;10.956;2023-02-19T06:24:40;98556.28;;;8.26;100.00
20156;BME280;10238;49.556;10.956;2023-02-19T06:27:27;98559.75;;;8.26;100.00
20156;BME280;10238;49.556;10.956;2023-02-19T06:30:15;98560.72;;;8.25;100.00
20156;BME280;10238;49.556;10.956;2023-02-19T06:33:03;98562.53;;;8.25;100.00
20156;BME280;10238;49.556;10.956;2023-02-19T06:35:50;98567.69;;;8.26;100.00
20156;BME280;10238;49.556;10.956;2023-02-19T06:38:39;98572.16;;;8.26;100.00
20156;BME280;10238;49.556;10.956;2023-02-19T06:41:27;98578.28;;;8.26;100.00
20156;BME280;10238;49.556;10.956;2023-02-19T06:44:14;98581.78;;;8.27;100.00
20156;BME280;10238;49.556;10.956;2023-02-19T06:47:02;98578.28;;;8.26;100.00
20156;BME280;10238;49.556;10.956;2023-02-19T06:49:53;98589.88;;;8.25;100.00
20156;BME280;10238;49.556;10.956;2023-02-19T06:52:40;98592.38;;;8.27;100.00
20156;BME280;10238;49.556;10.956;2023-02-19T06:55:29;98595.16;;;8.25;100.00
20156;BME280;10238;49.556;10.956;2023-02-19T06:58:18;98606.34;;;8.29;100.00
20156;BME280;10238;49.556;10.956;2023-02-19T07:01:05;98604.63;;;8.28;100.00
20156;BME280;10238;49.556;10.956;2023-02-19T07:03:58;98613.44;;;8.28;100.00
20156;BME280;10238;49.556;10.956;2023-02-19T07:06:45;98605.09;;;8.33;100.00
20156;BME280;10238;49.556;10.956;2023-02-19T07:09:33;98608.84;;;8.30;100.00
20156;BME280;10238;49.556;10.956;2023-02-19T07:12:22;98611.50;;;8.30;100.00
20156;BME280;10238;49.556;10.956;2023-02-19T07:15:09;98611.34;;;8.32;100.00
20156;BME280;10238;49.556;10.956;2023-02-19T07:17:58;98620.97;;;8.33;100.00
20156;BME280;10238;49.556;10.956;2023-02-19T07:20:46;98619.72;;;8.37;100.00
20156;BME280;10238;49.556;10.956;2023-02-19T07:23:34;98615.41;;;8.36;100.00
20156;BME280;10238;49.556;10.956;2023-02-19T07:26:22;98625.88;;;8.37;100.00
20156;BME280;10238;49.556;10.956;2023-02-19T07:29:13;98620.16;;;8.42;100.00
20156;BME280;10238;49.556;10.956;2023-02-19T07:32:01;98624.50;;;8.43;100.00
20156;BME280;10238;49.556;10.956;2023-02-19T07:34:52;98639.25;;;8.45;100.00
20156;BME280;10238;49.556;10.956;2023-02-19T07:37:40;98638.44;;;8.45;100.00
20156;BME280;10238;49.556;10.956;2023-02-19T07:40:27;98631.19;;;8.47;100.00
20156;BME280;10238;49.556;10.956;2023-02-19T07:43:15;98633.44;;;8.51;100.00
20156;BME280;10238;49.556;10.956;2023-02-19T07:46:05;98638.47;;;8.54;100.00
20156;BME280;10238;49.556;10.956;2023-02-19T07:48:53;98646.28;;;8.56;100.00
20156;BME280;10238;49.556;10.956;2023-02-19T07:51:42;98643.34;;;8.59;100.00
20156;BME280;10238;49.556;10.956;2023-02-19T07:54:30;98638.78;;;8.61;100.00
20156;BME280;10238;49.556;10.956;2023-02-19T07:57:18;98641.84;;;8.66;100.00
20156;BME280;10238;49.556;10.956;2023-02-19T08:00:06;98638.91;;;8.69;100.00
20156;BME280;10238;49.556;10.956;2023-02-19T08:02:56;98646.31;;;8.75;100.00
20156;BME280;10238;49.556;10.956;2023-02-19T08:05:52;98648.00;;;8.76;100.00
20156;BME280;10238;49.556;10.956;2023-02-19T08:08:41;98643.13;;;8.81;100.00
20156;BME280;10238;49.556;10.956;2023-02-19T08:11:29;98637.44;;;8.86;100.00
20156;BME280;10238;49.556;10.956;2023-02-19T08:14:35;98652.94;;;8.90;100.00
20156;BME280;10238;49.556;10.956;2023-02-19T08:17:22;98648.31;;;8.92;100.00
20156;BME280;10238;49.556;10.956;2023-02-19T08:20:12;98670.22;;;8.94;100.00
20156;BME280;10238;49.556;10.956;2023-02-19T08:22:59;98657.41;;;8.99;100.00
20156;BME280;10238;49.556;10.956;2023-02-19T08:25:48;98661.44;;;9.03;100.00
20156;BME280;10238;49.556;10.956;2023-02-19T08:28:36;98666.47;;;9.06;100.00
20156;BME280;10238;49.556;10.956;2023-02-19T08:31:24;98668.72;;;9.11;100.00
20156;BME280;10238;49.556;10.956;2023-02-19T08:34:12;98673.88;;;9.12;100.00
20156;BME280;10238;49.556;10.956;2023-02-19T08:37:01;98676.13;;;9.17;100.00
20156;BME280;10238;49.556;10.956;2023-02-19T08:39:49;98674.03;;;9.20;100.00
20156;BME280;10238;49.556;10.956;2023-02-19T08:42:36;98687.00;;;9.23;100.00
20156;BME280;10238;49.556;10.956;2023-02-19T08:45:23;98672.63;;;9.26;100.00
20156;BME280;10238;49.556;10.956;2023-02-19T08:48:12;98694.41;;;9.29;100.00
20156;BME280;10238;49.556;10.956;2023-02-19T08:51:03;98692.19;;;9.34;100.00
20156;BME280;10238;49.556;10.956;2023-02-19T08:53:54;98707.69;;;9.39;100.00
20156;BME280;10238;49.556;10.956;2023-02-19T08:56:42;98694.28;;;9.40;100.00
20156;BME280;10238;49.556;10.956;2023-02-19T08:59:29;98691.63;;;9.40;100.00
20156;BME280;10238;49.556;10.956;2023-02-19T09:02:17;98703.06;;;9.41;100.00
20156;BME280;10238;49.556;10.956;2023-02-19T09:05:05;98695.41;;;9.47;100.00
20156;BME280;10238;49.556;10.956;2023-02-19T09:07:53;98699.03;;;9.56;100.00
20156;BME280;10238;49.556;10.956;2023-02-19T09:10:42;98701.97;;;9.62;100.00
20156;BME280;10238;49.556;10.956;2023-02-19T09:13:30;98722.63;;;9.68;100.00
20156;BME280;10238;49.556;10.956;2023-02-19T09:16:18;98717.91;;;9.72;100.00
20156;BME280;10238;49.556;10.956;2023-02-19T09:19:05;98728.09;;;9.76;100.00
20156;BME280;10238;49.556;10.956;2023-02-19T09:21:55;98730.19;;;9.82;100.00
20156;BME280;10238;49.556;10.956;2023-02-19T09:24:43;98733.53;;;9.84;100.00
20156;BME280;10238;49.556;10.956;2023-02-19T09:27:32;98708.94;;;9.82;100.00
20156;BME280;10238;49.556;10.956;2023-02-19T09:30:20;98736.88;;;9.86;100.00
20156;BME280;10238;49.556;10.956;2023-02-19T09:33:08;98730.44;;;9.89;100.00
20156;BME280;10238;49.556;10.956;2023-02-19T09:36:00;98739.25;;;9.89;100.00
20156;BME280;10238;49.556;10.956;2023-02-19T09:38:48;98745.69;;;9.87;100.00
20156;BME280;10238;49.556;10.956;2023-02-19T09:41:41;98752.25;;;9.92;100.00
20156;BME280;10238;49.556;10.956;2023-02-19T09:44:34;98749.19;;;9.87;100.00
20156;BME280;10238;49.556;10.956;2023-02-19T09:47:25;98761.50;;;9.88;100.00
20156;BME280;10238;49.556;10.956;2023-02-19T09:50:19;98759.81;;;9.87;100.00
20156;BME280;10238;49.556;10.956;2023-02-19T09:53:15;98756.03;;;9.80;100.00
20156;BME280;10238;49.556;10.956;2023-02-19T09:56:05;98766.50;;;9.82;100.00
20156;BME280;10238;49.556;10.956;2023-02-19T09:58:57;98758.69;;;9.80;100.00
20156;BME280;10238;49.556;10.956;2023-02-19T10:01:54;98755.03;;;9.81;100.00
20156;BME280;10238;49.556;10.956;2023-02-19T10:04:46;98770.28;;;9.79;100.00
20156;BME280;10238;49.556;10.956;2023-02-19T10:07:38;98764.00;;;9.80;100.00
20156;BME280;10238;49.556;10.956;2023-02-19T10:10:29;98757.03;;;9.79;100.00
20156;BME280;10238;49.556;10.956;2023-02-19T10:13:21;98764.13;;;9.79;100.00
20156;BME280;10238;49.556;10.956;2023-02-19T10:16:13;98761.75;;;9.76;100.00
20156;BME280;10238;49.556;10.956;2023-02-19T10:19:08;98762.59;;;9.76;100.00
20156;BME280;10238;49.556;10.956;2023-02-19T10:21:56;98775.16;;;9.74;100.00
20156;BME280;10238;49.556;10.956;2023-02-19T10:24:46;98777.41;;;9.79;100.00
20156;BME280;10238;49.556;10.956;2023-02-19T10:27:37;98781.72;;;9.80;100.00
20156;BME280;10238;49.556;10.956;2023-02-19T10:30:29;98784.97;;;9.83;100.00
20156;BME280;10238;49.556;10.956;2023-02-19T10:33:18;98783.84;;;9.86;100.00
20156;BME280;10238;49.556;10.956;2023-02-19T10:36:24;98784.81;;;9.85;100.00
20156;BME280;10238;49.556;10.956;2023-02-19T10:39:38;98793.06;;;9.82;100.00
20156;BME280;10238;49.556;10.956;2023-02-19T10:42:27;98803.69;;;9.82;100.00
20156;BME280;10238;49.556;10.956;2023-02-19T10:45:20;98801.16;;;9.80;100.00
20156;BME280;10238;49.556;10.956;2023-02-19T10:48:22;98812.50;;;9.82;100.00
20156;BME280;10238;49.556;10.956;2023-02-19T10:51:12;98821.16;;;9.84;100.00
20156;BME280;10238;49.556;10.956;2023-02-19T10:54:16;98816.81;;;9.83;100.00
20156;BME280;10238;49.556;10.956;2023-02-19T10:57:25;98822.28;;;9.82;100.00
20156;BME280;10238;49.556;10.956;2023-02-19T11:00:27;98820.75;;;9.79;100.00
20156;BME280;10238;49.556;10.956;2023-02-19T11:03:21;98824.50;;;9.77;100.00
20156;BME280;10238;49.556;10.956;2023-02-19T11:06:13;98830.66;;;9.77;100.00
20156;BME280;10238;49.556;10.956;2023-02-19T11:09:01;98827.13;;;9.77;100.00
20156;BME280;10238;49.556;10.956;2023-02-19T11:11:51;98829.94;;;9.75;100.00
20156;BME280;10238;49.556;10.956;2023-02-19T11:14:42;98838.88;;;9.74;100.00
20156;BME280;10238;49.556;10.956;2023-02-19T11:17:31;98838.88;;;9.74;100.00
20156;BME280;10238;49.556;10.956;2023-02-19T11:20:19;98837.91;;;9.75;100.00
20156;BME280;10238;49.556;10.956;2023-02-19T11:23:16;98844.47;;;9.71;100.00
20156;BME280;10238;49.556;10.956;2023-02-19T11:26:15;98857.06;;;9.79;100.00
20156;BME280;10238;49.556;10.956;2023-02-19T11:29:17;98860.16;;;9.84;100.00
20156;BME280;10238;49.556;10.956;2023-02-19T11:32:26;98855.13;;;9.90;100.00
20156;BME280;10238;49.556;10.956;2023-02-19T11:35:20;98852.75;;;9.97;100.00
20156;BME280;10238;49.556;10.956;2023-02-19T11:38:15;98862.69;;;10.04;100.00
20156;BME280;10238;49.556;10.956;2023-02-19T11:41:17;98865.22;;;10.06;100.00
20156;BME280;10238;49.556;10.956;2023-02-19T11:44:23;98869.44;;;10.08;100.00
20156;BME280;10238;49.556;10.956;2023-02-19T11:51:31;98844.25;;;10.12;100.00
20156;BME280;10238;49.556;10.956;2023-02-19T11:54:46;98848.44;;;10.15;100.00
20156;BME280;10238;49.556;10.956;2023-02-19T11:57:42;98853.63;;;10.16;100.00
20156;BME280;10238;49.556;10.956;2023-02-19T12:00:34;98856.00;;;10.19;100.00
20156;BME280;10238;49.556;10.956;2023-02-19T12:03:48;98866.63;;;10.19;100.00
20156;BME280;10238;49.556;10.956;2023-02-19T12:06:54;98865.50;;;10.31;100.00
20156;BME280;10238;49.556;10.956;2023-02-19T12:10:00;98871.66;;;10.41;100.00
20156;BME280;10238;49.556;10.956;2023-02-19T12:13:03;98869.28;;;10.48;100.00
20156;BME280;10238;49.556;10.956;2023-02-19T12:16:16;98871.38;;;10.54;100.00
20156;BME280;10238;49.556;10.956;2023-02-19T12:19:36;98874.03;;;10.54;100.00
20156;BME280;10238;49.556;10.956;2023-02-19T12:22:31;98865.22;;;10.53;100.00
20156;BME280;10238;49.556;10.956;2023-02-19T12:25:42;98843.66;;;10.56;100.00
20156;BME280;10238;49.556;10.956;2023-02-19T12:29:05;98865.78;;;10.57;100.00
20156;BME280;10238;49.556;10.956;2023-02-19T12:38:42;98840.59;;;10.61;100.00
20156;BME280;10238;49.556;10.956;2023-02-19T12:41:42;98857.66;;;10.58;100.00
20156;BME280;10238;49.556;10.956;2023-02-19T12:44:41;98847.03;;;10.58;100.00
20156;BME280;10238;49.556;10.956;2023-02-19T12:47:36;98865.34;;;10.61;100.00
20156;BME280;10238;49.556;10.956;2023-02-19T12:50:26;98876.94;;;10.60;100.00
20156;BME280;10238;49.556;10.956;2023-02-19T12:53:38;98880.03;;;10.56;100.00
20156;BME280;10238;49.556;10.956;2023-02-19T12:56:33;98871.38;;;10.44;100.00
20156;BME280;10238;49.556;10.956;2023-02-19T12:59:30;98866.91;;;10.45;100.00
20156;BME280;10238;49.556;10.956;2023-02-19T13:02:26;98868.84;;;10.43;100.00
20156;BME280;10238;49.556;10.956;2023-02-19T13:05:22;98883.00;;;10.43;100.00
20156;BME280;10238;49.556;10.956;2023-02-19T13:08:18;98882.56;;;10.38;100.00
20156;BME280;10238;49.556;10.956;2023-02-19T13:11:14;98874.19;;;10.33;100.00
20156;BME280;10238;49.556;10.956;2023-02-19T13:14:15;98865.38;;;10.23;100.00
20156;BME280;10238;49.556;10.956;2023-02-19T13:17:20;98874.75;;;10.27;100.00
20156;BME280;10238;49.556;10.956;2023-02-19T13:20:23;98879.34;;;10.25;100.00
20156;BME280;10238;49.556;10.956;2023-02-19T13:23:19;98868.88;;;10.33;100.00
20156;BME280;10238;49.556;10.956;2023-02-19T13:27:11;98863.28;;;10.36;100.00
20156;BME280;10238;49.556;10.956;2023-02-19T13:30:28;98875.84;;;10.53;100.00
20156;BME280;10238;49.556;10.956;2023-02-19T13:33:29;98855.69;;;10.70;100.00
20156;BME280;10238;49.556;10.956;2023-02-19T13:36:24;98854.50;;;10.82;100.00
20156;BME280;10238;49.556;10.956;2023-02-19T13:39:15;98839.91;;;10.95;100.00
20156;BME280;10238;49.556;10.956;2023-02-19T13:42:04;98849.69;;;11.05;100.00
20156;BME280;10238;49.556;10.956;2023-02-19T13:44:51;98848.41;;;11.09;100.00
20156;BME280;10238;49.556;10.956;2023-02-19T13:47:58;98847.16;;;11.13;100.00
20156;BME280;10238;49.556;10.956;2023-02-19T13:50:46;98847.69;;;11.16;100.00
20156;BME280;10238;49.556;10.956;2023-02-19T13:53:57;98864.88;;;11.22;100.00
20156;BME280;10238;49.556;10.956;2023-02-19T13:56:45;98854.94;;;11.24;100.00
20156;BME280;10238;49.556;10.956;2023-02-19T13:59:35;98861.06;;;11.34;100.00
20156;BME280;10238;49.556;10.956;2023-02-19T14:02:29;98855.00;;;11.41;100.00
20156;BME280;10238;49.556;10.956;2023-02-19T14:05:58;98851.44;;;11.50;100.00
20156;BME280;10238;49.556;10.956;2023-02-19T14:08:51;98859.66;;;11.57;100.00
20156;BME280;10238;49.556;10.956;2023-02-19T14:12:01;98867.34;;;11.69;100.00
20156;BME280;10238;49.556;10.956;2023-02-19T14:14:50;98863.53;;;11.72;100.00
20156;BME280;10238;49.556;10.956;2023-02-19T14:17:41;98875.97;;;11.81;100.00
20156;BME280;10238;49.556;10.956;2023-02-19T14:20:43;98876.53;;;11.84;100.00
20156;BME280;10238;49.556;10.956;2023-02-19T14:23:31;98871.00;;;11.86;100.00
20156;BME280;10238;49.556;10.956;2023-02-19T14:26:20;98886.03;;;11.87;100.00
20156;BME280;10238;49.556;10.956;2023-02-19T14:29:12;98892.31;;;11.86;100.00
20156;BME280;10238;49.556;10.956;2023-02-19T14:32:04;98887.78;;;11.78;100.00
20156;BME280;10238;49.556;10.956;2023-02-19T14:34:54;98897.66;;;11.86;100.00
20156;BME280;10238;49.556;10.956;2023-02-19T14:37:46;98894.31;;;11.84;100.00
20156;BME280;10238;49.556;10.956;2023-02-19T14:40:38;98897.34;;;11.89;100.00
20156;BME280;10238;49.556;10.956;2023-02-19T14:43:28;98900.09;;;11.79;100.00
20156;BME280;10238;49.556;10.956;2023-02-19T14:46:25;98900.03;;;11.89;100.00
20156;BME280;10238;49.556;10.956;2023-02-19T14:49:24;98901.56;;;11.91;100.00
20156;BME280;10238;49.556;10.956;2023-02-19T14:52:21;98917.41;;;11.93;100.00
20156;BME280;10238;49.556;10.956;2023-02-19T14:55:19;98902.38;;;11.92;100.00
20156;BME280;10238;49.556;10.956;2023-02-19T14:58:14;98922.63;;;11.85;100.00
20156;BME280;10238;49.556;10.956;2023-02-19T15:01:03;98927.81;;;11.86;100.00
20156;BME280;10238;49.556;10.956;2023-02-19T15:03:55;98925.28;;;11.85;100.00
20156;BME280;10238;49.556;10.956;2023-02-19T15:06:43;98921.41;;;11.79;100.00
20156;BME280;10238;49.556;10.956;2023-02-19T15:09:38;98930.13;;;11.72;100.00
20156;BME280;10238;49.556;10.956;2023-02-19T15:12:34;98916.72;;;11.64;100.00
20156;BME280;10238;49.556;10.956;2023-02-19T15:15:28;98915.03;;;11.63;100.00